Time;durP1;ratioP1;P1;durP2;ratioP2;P2;SDS_P1;SDS_P2;PMS_P1;PMS_P2;Temp;Humidity;BMP_temperature;BMP_pressure;BME280_temperature;BME280_humidity;BME280_pressure;Samples;Min_cycle;Max_cycle;Signal;HPM_P1;HPM_P2
2022/01/11 00:01:14;;;;;;;;;;;7.60;54.50;;;;;;5064274;28;19912;-68
2022/01/11 00:03:41;;;;;;;;;;;7.50;54.50;;;;;;5073553;28;19913;-68
2022/01/11 00:09:00;;;;;;;;;;;7.20;54.60;;;;;;5089202;28;19915;-68
2022/01/11 00:11:26;;;;;;;;;;;7.10;54.70;;;;;;5075904;28;19915;-68
2022/01/11 00:13:54;;;;;;;;;;;7.00;54.80;;;;;;5063389;28;19919;-68
2022/01/11 00:16:20;;;;;;;;;;;6.90;54.90;;;;;;5055292;28;19908;-68
2022/01/11 00:18:48;;;;;;;;;;;6.80;55.00;;;;;;5088554;28;19921;-68
2022/01/11 00:21:14;;;;;;;;;;;6.70;55.20;;;;;;5088911;28;19910;-68
2022/01/11 00:26:05;;;;;;;;;;;6.60;55.50;;;;;;5073071;28;19958;-68
2022/01/11 00:28:31;;;;;;;;;;;6.50;55.60;;;;;;5055255;28;20336;-68
2022/01/11 00:30:57;;;;;;;;;;;6.50;55.60;;;;;;5073158;28;19916;-69
2022/01/11 00:33:36;;;;;;;;;;;6.40;55.80;;;;;;5073097;28;20003;-68
2022/01/11 00:36:03;;;;;;;;;;;6.40;56.00;;;;;;5055034;28;19920;-68
2022/01/11 00:38:32;;;;;;;;;;;6.40;56.30;;;;;;5073127;28;19909;-67
2022/01/11 00:40:59;;;;;;;;;;;6.40;56.70;;;;;;5055007;28;19913;-68
2022/01/11 00:43:26;;;;;;;;;;;6.40;56.90;;;;;;5055043;28;19908;-68
2022/01/11 00:45:55;;;;;;;;;;;6.50;56.90;;;;;;5072679;28;20356;-68
2022/01/11 00:48:21;;;;;;;;;;;6.50;56.90;;;;;;5066036;28;19913;-69
2022/01/11 00:50:48;;;;;;;;;;;6.60;57.00;;;;;;5051612;28;19915;-68
2022/01/11 00:53:14;;;;;;;;;;;6.60;57.00;;;;;;5051689;28;19905;-69
2022/01/11 00:55:44;;;;;;;;;;;6.70;57.00;;;;;;5063482;28;19908;-68
2022/01/11 00:58:10;;;;;;;;;;;6.70;57.10;;;;;;5054992;28;19913;-68
2022/01/11 01:00:36;;;;;;;;;;;6.80;57.20;;;;;;5072918;28;20015;-68
2022/01/11 01:03:03;;;;;;;;;;;6.80;57.30;;;;;;5054712;28;20233;-70
2022/01/11 01:05:29;;;;;;;;;;;6.90;57.40;;;;;;5072842;28;19920;-68
2022/01/11 01:07:54;;;;;;;;;;;6.90;57.40;;;;;;5054770;28;19904;-68
2022/01/11 01:10:29;;;;;;;;;;;7.00;57.50;;;;;;5072615;28;20411;-68
2022/01/11 01:12:58;;;;;;;;;;;7.00;57.50;;;;;;5072750;28;19984;-67
2022/01/11 01:15:25;;;;;;;;;;;7.10;57.50;;;;;;5054939;28;19904;-68
2022/01/11 01:17:53;;;;;;;;;;;7.20;57.50;;;;;;5061824;28;19916;-69
2022/01/11 01:20:19;;;;;;;;;;;7.20;57.40;;;;;;5035686;28;20284;-68
2022/01/11 01:22:50;;;;;;;;;;;7.30;57.50;;;;;;5053010;28;20007;-68
2022/01/11 01:25:20;;;;;;;;;;;7.30;57.40;;;;;;5057403;28;20233;-68
2022/01/11 01:27:52;;;;;;;;;;;7.40;57.50;;;;;;5060406;28;19904;-69
2022/01/11 01:30:20;;;;;;;;;;;7.40;57.50;;;;;;5060031;28;19905;-68
2022/01/11 01:32:48;;;;;;;;;;;7.50;57.50;;;;;;5042201;28;19927;-69
2022/01/11 01:35:14;;;;;;;;;;;7.50;57.50;;;;;;5041890;28;19908;-68
2022/01/11 01:37:39;;;;;;;;;;;7.50;57.40;;;;;;5041874;28;19905;-69
2022/01/11 01:40:05;;;;;;;;;;;7.60;57.30;;;;;;5060053;28;19912;-68
2022/01/11 01:42:34;;;;;;;;;;;7.60;57.30;;;;;;5059562;28;20391;-68
2022/01/11 01:45:02;;;;;;;;;;;7.60;57.30;;;;;;5041947;28;20056;-68
2022/01/11 01:47:31;;;;;;;;;;;7.60;57.20;;;;;;5042126;28;19915;-68
2022/01/11 01:49:59;;;;;;;;;;;7.60;57.20;;;;;;5041922;28;19948;-69
2022/01/11 01:52:25;;;;;;;;;;;7.70;57.20;;;;;;5041661;28;19956;-68
2022/01/11 01:54:54;;;;;;;;;;;7.70;57.20;;;;;;5060180;28;19974;-68
2022/01/11 01:57:20;;;;;;;;;;;7.70;57.20;;;;;;5041732;28;19905;-68
2022/01/11 01:59:45;;;;;;;;;;;7.70;57.30;;;;;;5059659;28;20349;-68
2022/01/11 02:02:13;;;;;;;;;;;7.70;57.30;;;;;;5059778;28;19952;-68
2022/01/11 02:04:39;;;;;;;;;;;7.70;57.20;;;;;;5074690;28;19909;-69
2022/01/11 02:07:04;;;;;;;;;;;7.70;57.20;;;;;;5041665;28;19905;-68
2022/01/11 02:09:36;;;;;;;;;;;7.70;57.20;;;;;;5059387;28;19905;-68
2022/01/11 02:12:02;;;;;;;;;;;7.70;57.20;;;;;;5042151;28;19951;-68
2022/01/11 02:14:27;;;;;;;;;;;7.70;57.20;;;;;;5059297;28;19948;-68
2022/01/11 02:16:56;;;;;;;;;;;7.70;57.20;;;;;;5044481;28;19916;-68
2022/01/11 02:19:22;;;;;;;;;;;7.70;57.20;;;;;;5061739;28;19947;-68
2022/01/11 02:21:50;;;;;;;;;;;7.70;57.20;;;;;;5079677;28;19904;-68
2022/01/11 02:24:15;;;;;;;;;;;7.70;57.20;;;;;;5061489;28;19916;-68
2022/01/11 02:26:41;;;;;;;;;;;7.70;57.10;;;;;;5080076;28;19912;-68
2022/01/11 02:38:18;;;;;;;;;;;7.60;57.20;;;;;;5075721;28;20318;-69
2022/01/11 02:40:46;;;;;;;;;;;7.60;57.20;;;;;;5076062;28;20375;-69
2022/01/11 02:43:14;;;;;;;;;;;7.60;57.20;;;;;;5058083;28;19912;-68
2022/01/11 02:45:40;;;;;;;;;;;7.60;57.20;;;;;;5058514;28;19955;-68
2022/01/11 02:48:05;;;;;;;;;;;7.60;57.30;;;;;;5076197;28;19905;-68
2022/01/11 02:50:33;;;;;;;;;;;7.60;57.30;;;;;;5076394;28;19909;-68
2022/01/11 02:52:59;;;;;;;;;;;7.60;57.30;;;;;;5075823;28;19926;-68
2022/01/11 02:55:25;;;;;;;;;;;7.50;57.30;;;;;;5075832;28;20001;-67
2022/01/11 02:57:50;;;;;;;;;;;7.60;57.40;;;;;;5075638;28;20348;-68
2022/01/11 03:00:18;;;;;;;;;;;7.60;57.40;;;;;;5058013;28;19908;-68
2022/01/11 03:02:46;;;;;;;;;;;7.60;57.40;;;;;;5076103;28;19912;-68
2022/01/11 03:05:12;;;;;;;;;;;7.60;57.40;;;;;;5057990;28;20335;-68
2022/01/11 03:07:39;;;;;;;;;;;7.60;57.40;;;;;;5057941;28;19948;-68
2022/01/11 03:10:13;;;;;;;;;;;7.60;58.00;;;;;;5057821;28;19995;-68
2022/01/11 03:12:42;;;;;;;;;;;7.60;57.40;;;;;;5057794;28;19950;-68
2022/01/11 03:15:08;;;;;;;;;;;7.60;57.30;;;;;;5075885;28;19908;-69
2022/01/11 03:17:34;;;;;;;;;;;7.70;57.40;;;;;;5057345;28;20268;-68
2022/01/11 03:19:59;;;;;;;;;;;7.70;57.40;;;;;;5075598;28;19909;-68
2022/01/11 03:22:25;;;;;;;;;;;7.60;57.30;;;;;;5075014;28;19913;-67
2022/01/11 03:24:53;;;;;;;;;;;7.70;57.50;;;;;;5075515;28;19915;-69
2022/01/11 03:27:19;;;;;;;;;;;7.70;57.60;;;;;;5075754;28;19912;-68
2022/01/11 03:29:44;;;;;;;;;;;7.70;57.60;;;;;;5090925;28;19904;-68
2022/01/11 03:32:12;;;;;;;;;;;7.70;57.60;;;;;;5091220;28;19911;-68
2022/01/11 03:34:38;;;;;;;;;;;7.70;57.60;;;;;;5057300;28;19905;-68
2022/01/11 03:37:04;;;;;;;;;;;7.70;57.60;;;;;;5057362;28;19983;-70
2022/01/11 03:39:32;;;;;;;;;;;7.70;57.60;;;;;;5057213;28;19912;-70
2022/01/11 03:41:57;;;;;;;;;;;7.70;57.60;;;;;;5075099;28;19909;-68
2022/01/11 03:44:23;;;;;;;;;;;7.80;57.60;;;;;;5074692;28;19912;-68
2022/01/11 03:46:48;;;;;;;;;;;7.80;57.60;;;;;;5075074;28;19905;-68
2022/01/11 03:49:17;;;;;;;;;;;7.80;57.60;;;;;;5055780;28;19904;-68
2022/01/11 03:51:46;;;;;;;;;;;7.80;57.60;;;;;;5057082;28;20262;-69
2022/01/11 03:54:15;;;;;;;;;;;7.80;57.50;;;;;;5075084;28;19909;-68
2022/01/11 03:56:43;;;;;;;;;;;7.80;57.60;;;;;;5075207;28;19958;-68
2022/01/11 03:59:09;;;;;;;;;;;7.80;57.60;;;;;;5074586;28;19904;-68
2022/01/11 04:01:35;;;;;;;;;;;7.80;57.60;;;;;;5074411;28;20483;-68
2022/01/11 04:04:01;;;;;;;;;;;7.80;57.50;;;;;;5074351;28;20256;-68
2022/01/11 04:06:27;;;;;;;;;;;7.80;57.50;;;;;;5074721;28;19916;-68
2022/01/11 04:08:53;;;;;;;;;;;7.80;57.40;;;;;;5074650;28;19920;-68
2022/01/11 04:11:18;;;;;;;;;;;7.80;57.40;;;;;;5074350;28;19905;-68
2022/01/11 04:13:44;;;;;;;;;;;7.80;57.40;;;;;;5056915;28;19904;-68
2022/01/11 04:16:10;;;;;;;;;;;7.80;57.30;;;;;;5090155;28;19912;-68
2022/01/11 04:18:36;;;;;;;;;;;7.80;57.30;;;;;;5073878;28;20556;-68
2022/01/11 04:21:02;;;;;;;;;;;7.80;57.30;;;;;;5074448;28;19923;-68
2022/01/11 04:23:28;;;;;;;;;;;7.70;57.30;;;;;;5089865;28;19908;-68
2022/01/11 04:25:53;;;;;;;;;;;7.70;57.20;;;;;;5074082;28;19908;-68
2022/01/11 04:28:22;;;;;;;;;;;7.70;57.20;;;;;;5073866;28;19905;-68
2022/01/11 04:30:48;;;;;;;;;;;7.70;57.30;;;;;;5074217;28;19944;-68
2022/01/11 04:33:14;;;;;;;;;;;7.70;57.30;;;;;;5074152;28;19935;-68
2022/01/11 04:35:43;;;;;;;;;;;7.60;57.20;;;;;;5073802;28;20350;-68
2022/01/11 04:38:08;;;;;;;;;;;7.60;57.20;;;;;;5074119;28;19911;-68
2022/01/11 04:40:34;;;;;;;;;;;7.60;57.20;;;;;;5074008;28;20003;-68
2022/01/11 04:42:59;;;;;;;;;;;7.50;57.10;;;;;;5073726;28;19912;-68
2022/01/11 04:45:28;;;;;;;;;;;7.50;57.10;;;;;;5055925;28;19946;-67
2022/01/11 04:47:56;;;;;;;;;;;7.40;57.00;;;;;;5056223;28;19904;-68
2022/01/11 04:50:24;;;;;;;;;;;7.40;57.00;;;;;;5073577;28;19911;-68
2022/01/11 04:52:50;;;;;;;;;;;7.30;56.90;;;;;;5055726;28;19911;-68
2022/01/11 04:55:16;;;;;;;;;;;7.20;56.80;;;;;;5073708;28;20076;-69
2022/01/11 04:57:42;;;;;;;;;;;7.20;56.80;;;;;;5073478;28;19995;-68
2022/01/11 05:00:11;;;;;;;;;;;7.10;56.80;;;;;;5073364;28;19994;-69
2022/01/11 05:02:37;;;;;;;;;;;7.10;56.90;;;;;;5055891;28;19974;-68
2022/01/11 05:05:03;;;;;;;;;;;7.00;56.80;;;;;;5073680;28;19912;-67
2022/01/11 05:07:29;;;;;;;;;;;7.00;56.80;;;;;;5055681;28;20426;-68
2022/01/11 05:09:54;;;;;;;;;;;6.90;56.70;;;;;;5073271;28;19940;-68
2022/01/11 05:12:23;;;;;;;;;;;6.80;56.70;;;;;;5055484;28;19954;-68
2022/01/11 05:14:49;;;;;;;;;;;6.70;56.60;;;;;;5071975;28;20356;-68
2022/01/11 05:17:15;;;;;;;;;;;6.60;56.50;;;;;;5087373;28;19916;-69
2022/01/11 05:19:40;;;;;;;;;;;6.60;56.50;;;;;;5072591;28;19912;-68
2022/01/11 05:22:09;;;;;;;;;;;6.40;56.40;;;;;;5073440;28;20000;-68
2022/01/11 05:24:34;;;;;;;;;;;6.40;57.10;;;;;;5073180;28;19913;-68
2022/01/11 05:27:02;;;;;;;;;;;6.20;56.50;;;;;;5073247;28;20021;-68
2022/01/11 05:29:30;;;;;;;;;;;6.20;56.60;;;;;;5054984;28;19905;-68
2022/01/11 05:31:58;;;;;;;;;;;6.10;56.60;;;;;;5073635;28;19955;-69
2022/01/11 05:34:24;;;;;;;;;;;6.00;56.70;;;;;;5073176;28;19950;-67
2022/01/11 05:36:50;;;;;;;;;;;5.90;56.90;;;;;;5073133;28;20352;-68
2022/01/11 05:39:16;;;;;;;;;;;5.80;57.00;;;;;;5073242;28;19963;-69
2022/01/11 05:41:44;;;;;;;;;;;5.80;57.30;;;;;;5073149;28;19954;-68
2022/01/11 05:44:10;;;;;;;;;;;5.70;57.60;;;;;;5073220;28;19923;-68
2022/01/11 05:46:38;;;;;;;;;;;5.70;57.80;;;;;;5073708;28;20275;-68
2022/01/11 05:49:03;;;;;;;;;;;5.60;57.90;;;;;;5073259;28;20337;-68
2022/01/11 05:51:31;;;;;;;;;;;5.60;57.90;;;;;;5073043;28;19911;-68
2022/01/11 05:53:57;;;;;;;;;;;5.60;58.00;;;;;;5055144;28;19959;-68
2022/01/11 05:56:23;;;;;;;;;;;5.50;57.90;;;;;;5055344;28;19909;-67
2022/01/11 05:58:49;;;;;;;;;;;5.50;57.90;;;;;;5073252;28;19952;-68
2022/01/11 06:01:14;;;;;;;;;;;5.40;57.90;;;;;;5088457;28;20236;-68
2022/01/11 06:03:40;;;;;;;;;;;5.40;57.90;;;;;;5054988;28;19908;-68
2022/01/11 06:06:06;;;;;;;;;;;5.30;58.00;;;;;;5055115;28;19970;-68
2022/01/11 06:08:32;;;;;;;;;;;5.20;57.90;;;;;;5072799;28;19905;-68
2022/01/11 06:10:57;;;;;;;;;;;5.20;58.00;;;;;;5073240;28;19911;-67
2022/01/11 06:13:26;;;;;;;;;;;5.10;58.00;;;;;;5076503;28;20352;-67
2022/01/11 06:15:52;;;;;;;;;;;5.10;58.10;;;;;;5058744;28;19939;-68
2022/01/11 06:18:17;;;;;;;;;;;5.00;58.10;;;;;;5058408;28;19916;-68
2022/01/11 06:20:46;;;;;;;;;;;5.00;58.10;;;;;;5076496;28;19931;-68
2022/01/11 06:23:11;;;;;;;;;;;4.90;58.10;;;;;;5075937;28;20004;-67
2022/01/11 06:25:37;;;;;;;;;;;4.90;58.20;;;;;;5058199;28;20375;-68
2022/01/11 06:28:03;;;;;;;;;;;4.90;58.30;;;;;;5076279;28;19904;-68
2022/01/11 06:30:29;;;;;;;;;;;4.80;58.30;;;;;;5076092;28;20002;-68
2022/01/11 06:32:57;;;;;;;;;;;4.80;58.40;;;;;;5059347;28;19936;-67
2022/01/11 06:35:24;;;;;;;;;;;4.80;58.40;;;;;;5091864;28;20005;-66
2022/01/11 06:37:51;;;;;;;;;;;4.70;58.40;;;;;;5076105;28;20265;-68
2022/01/11 06:40:17;;;;;;;;;;;4.70;58.50;;;;;;5092307;28;19908;-66
2022/01/11 06:42:46;;;;;;;;;;;4.70;58.50;;;;;;5058166;28;19908;-67
2022/01/11 06:45:12;;;;;;;;;;;4.60;58.50;;;;;;5091736;28;19962;-66
2022/01/11 06:47:38;;;;;;;;;;;4.60;58.50;;;;;;5058180;28;19912;-66
2022/01/11 06:50:04;;;;;;;;;;;4.60;58.60;;;;;;5057822;28;19934;-66
2022/01/11 06:52:30;;;;;;;;;;;4.60;59.20;;;;;;5076187;28;19905;-66
2022/01/11 06:54:55;;;;;;;;;;;4.50;58.60;;;;;;5058308;28;19904;-64
2022/01/11 06:57:21;;;;;;;;;;;4.50;58.60;;;;;;5087194;28;19908;-65
2022/01/11 06:59:46;;;;;;;;;;;4.50;58.70;;;;;;5075516;28;19962;-65
2022/01/11 07:02:15;;;;;;;;;;;4.50;58.80;;;;;;5057473;28;19909;-65
2022/01/11 07:04:41;;;;;;;;;;;4.50;58.90;;;;;;5064419;28;19920;-65
2022/01/11 07:07:07;;;;;;;;;;;4.40;59.40;;;;;;5055894;28;19908;-66
2022/01/11 07:09:33;;;;;;;;;;;4.40;59.00;;;;;;5059165;28;19947;-65
2022/01/11 07:12:02;;;;;;;;;;;4.40;59.10;;;;;;5054574;28;19959;-64
2022/01/11 07:14:27;;;;;;;;;;;4.40;59.10;;;;;;5066471;28;19915;-64
2022/01/11 07:16:53;;;;;;;;;;;4.40;59.20;;;;;;5075877;28;19917;-65
2022/01/11 07:19:19;;;;;;;;;;;4.50;59.20;;;;;;5075330;28;19912;-65
2022/01/11 07:21:45;;;;;;;;;;;4.40;59.20;;;;;;5075352;28;19905;-65
2022/01/11 07:24:12;;;;;;;;;;;4.40;59.30;;;;;;5075013;28;19908;-64
2022/01/11 07:26:38;;;;;;;;;;;4.50;59.40;;;;;;5057670;28;19919;-66
2022/01/11 07:29:05;;;;;;;;;;;4.40;59.40;;;;;;5075888;28;19904;-65
2022/01/11 07:31:31;;;;;;;;;;;4.50;59.60;;;;;;5087342;28;19923;-65
2022/01/11 07:33:57;;;;;;;;;;;4.50;59.80;;;;;;5086746;28;19931;-65
2022/01/11 07:36:23;;;;;;;;;;;4.50;59.80;;;;;;5078184;28;20342;-63
2022/01/11 07:38:51;;;;;;;;;;;4.60;60.00;;;;;;5062274;28;19924;-62
2022/01/11 07:41:17;;;;;;;;;;;4.60;60.00;;;;;;5075098;28;19909;-67
2022/01/11 07:43:42;;;;;;;;;;;4.60;60.00;;;;;;5074796;28;20315;-64
2022/01/11 07:46:08;;;;;;;;;;;4.70;60.10;;;;;;5074636;28;19970;-62
2022/01/11 07:48:33;;;;;;;;;;;4.70;60.00;;;;;;5074651;28;19919;-64
2022/01/11 07:50:59;;;;;;;;;;;4.80;60.00;;;;;;5075461;28;19912;-66
2022/01/11 07:53:28;;;;;;;;;;;4.90;60.00;;;;;;5056753;28;19913;-63
2022/01/11 07:55:53;;;;;;;;;;;4.90;60.00;;;;;;5075348;28;19904;-64
2022/01/11 07:58:19;;;;;;;;;;;4.90;60.00;;;;;;5056167;28;19905;-63
2022/01/11 08:00:45;;;;;;;;;;;5.00;60.00;;;;;;5074993;28;19909;-62
2022/01/11 08:03:10;;;;;;;;;;;5.10;60.00;;;;;;5073995;28;19913;-62
2022/01/11 08:05:36;;;;;;;;;;;5.10;60.00;;;;;;5074922;28;19924;-63
2022/01/11 08:08:02;;;;;;;;;;;5.20;60.00;;;;;;5073985;28;19911;-64
2022/01/11 08:10:28;;;;;;;;;;;5.20;60.00;;;;;;5074745;28;19905;-65
2022/01/11 08:12:53;;;;;;;;;;;5.30;60.10;;;;;;5074437;28;19991;-63
2022/01/11 08:15:19;;;;;;;;;;;5.40;60.20;;;;;;5074905;28;20237;-62
2022/01/11 08:17:46;;;;;;;;;;;5.40;60.10;;;;;;5045282;28;19967;-64
2022/01/11 08:20:12;;;;;;;;;;;5.50;60.10;;;;;;5054795;28;19935;-65
2022/01/11 08:22:38;;;;;;;;;;;5.60;60.20;;;;;;5035892;28;20400;-65
2022/01/11 08:25:04;;;;;;;;;;;5.60;60.10;;;;;;5054826;28;19966;-65
2022/01/11 08:27:30;;;;;;;;;;;5.70;60.00;;;;;;5054450;28;19995;-68
2022/01/11 08:29:56;;;;;;;;;;;5.70;60.00;;;;;;5053593;28;19940;-67
2022/01/11 08:32:22;;;;;;;;;;;5.80;60.00;;;;;;5054036;28;19955;-66
2022/01/11 08:34:48;;;;;;;;;;;5.90;60.00;;;;;;5053506;28;19909;-69
2022/01/11 08:37:14;;;;;;;;;;;5.90;60.00;;;;;;5036346;28;19904;-76
2022/01/11 08:39:42;;;;;;;;;;;6.00;59.90;;;;;;5052792;28;19931;-76
2022/01/11 08:42:12;;;;;;;;;;;6.00;59.90;;;;;;5019243;28;19905;-78
2022/01/11 08:44:38;;;;;;;;;;;6.10;59.90;;;;;;5030300;28;20380;-72
2022/01/11 08:47:04;;;;;;;;;;;6.20;59.80;;;;;;5059549;28;20003;-75
2022/01/11 08:49:30;;;;;;;;;;;6.30;59.70;;;;;;5056867;28;20032;-80
2022/01/11 08:51:55;;;;;;;;;;;6.30;59.60;;;;;;5073580;28;19952;-77
2022/01/11 08:54:24;;;;;;;;;;;6.40;59.50;;;;;;5057521;28;19904;-76
2022/01/11 08:56:53;;;;;;;;;;;6.50;59.50;;;;;;5054050;28;19912;-71
2022/01/11 08:59:18;;;;;;;;;;;6.60;59.60;;;;;;5034815;28;19904;-76
2022/01/11 09:01:44;;;;;;;;;;;6.70;59.60;;;;;;5035897;28;19905;-74
2022/01/11 09:04:10;;;;;;;;;;;6.80;59.50;;;;;;5035437;28;19916;-67
2022/01/11 09:06:35;;;;;;;;;;;6.90;59.50;;;;;;5036245;28;20261;-68
2022/01/11 09:09:02;;;;;;;;;;;7.00;59.50;;;;;;5034893;28;19951;-74
2022/01/11 09:11:28;;;;;;;;;;;7.10;59.60;;;;;;5035804;28;19909;-74
2022/01/11 09:13:54;;;;;;;;;;;7.20;59.60;;;;;;5069103;28;20255;-73
2022/01/11 09:16:22;;;;;;;;;;;7.30;59.50;;;;;;5053108;28;20256;-64
2022/01/11 09:18:48;;;;;;;;;;;7.40;59.30;;;;;;5054440;28;19939;-68
2022/01/11 09:21:15;;;;;;;;;;;7.60;59.20;;;;;;5073135;28;19991;-64
2022/01/11 09:23:40;;;;;;;;;;;7.70;59.10;;;;;;5055269;28;19909;-65
2022/01/11 09:26:06;;;;;;;;;;;7.80;59.00;;;;;;5073217;28;19916;-70
2022/01/11 09:28:32;;;;;;;;;;;7.90;58.90;;;;;;5072163;28;19908;-68
2022/01/11 09:30:58;;;;;;;;;;;8.00;58.90;;;;;;5073514;28;19956;-65
2022/01/11 09:33:24;;;;;;;;;;;8.10;58.70;;;;;;5073245;28;19913;-64
2022/01/11 09:35:50;;;;;;;;;;;8.20;58.40;;;;;;5055059;28;19912;-64
2022/01/11 09:38:15;;;;;;;;;;;8.30;58.40;;;;;;5071983;28;20335;-65
2022/01/11 09:40:41;;;;;;;;;;;8.40;58.20;;;;;;5055484;28;20002;-65
2022/01/11 09:43:06;;;;;;;;;;;8.50;57.90;;;;;;5088083;28;19917;-65
2022/01/11 09:45:32;;;;;;;;;;;8.60;57.60;;;;;;5056100;28;19908;-64
2022/01/11 09:47:58;;;;;;;;;;;8.60;58.10;;;;;;5076155;28;19967;-65
2022/01/11 09:50:24;;;;;;;;;;;8.70;57.40;;;;;;5059230;28;19943;-64
2022/01/11 09:52:50;;;;;;;;;;;8.90;57.50;;;;;;5076524;28;19998;-65
2022/01/11 09:55:16;;;;;;;;;;;8.90;57.30;;;;;;5077255;28;19908;-64
2022/01/11 09:57:42;;;;;;;;;;;9.00;57.10;;;;;;5057783;28;19915;-66
2022/01/11 10:00:10;;;;;;;;;;;9.10;56.90;;;;;;5058481;28;20000;-65
2022/01/11 10:02:36;;;;;;;;;;;9.20;56.70;;;;;;5074087;28;19904;-65
2022/01/11 10:05:05;;;;;;;;;;;9.30;56.60;;;;;;5076909;28;19963;-65
2022/01/11 10:07:32;;;;;;;;;;;9.40;56.20;;;;;;5058829;28;19915;-65
2022/01/11 10:09:58;;;;;;;;;;;9.40;55.30;;;;;;5057808;28;19905;-65
2022/01/11 10:12:24;;;;;;;;;;;9.50;54.80;;;;;;5076777;28;20310;-65
2022/01/11 10:14:54;;;;;;;;;;;9.50;54.80;;;;;;5058638;28;20215;-68
2022/01/11 10:17:23;;;;;;;;;;;9.60;54.60;;;;;;5076267;28;19924;-67
2022/01/11 10:20:00;;;;;;;;;;;9.60;54.10;;;;;;5092177;28;19908;-72
2022/01/11 10:22:26;;;;;;;;;;;9.60;53.80;;;;;;5062800;28;20311;-68
2022/01/11 10:24:53;;;;;;;;;;;9.60;53.70;;;;;;5076480;28;19913;-69
2022/01/11 10:27:20;;;;;;;;;;;9.60;53.70;;;;;;5059072;28;20053;-69
2022/01/11 10:29:49;;;;;;;;;;;9.60;53.40;;;;;;5076948;28;19935;-72
2022/01/11 10:32:18;;;;;;;;;;;9.60;53.10;;;;;;5058005;28;20003;-69
2022/01/11 10:34:47;;;;;;;;;;;9.60;53.10;;;;;;5076144;28;20054;-71
2022/01/11 10:37:13;;;;;;;;;;;9.60;53.20;;;;;;5058504;28;19904;-70
2022/01/11 10:39:40;;;;;;;;;;;9.60;53.00;;;;;;5057200;28;19911;-69
2022/01/11 10:42:06;;;;;;;;;;;9.70;53.30;;;;;;5058469;28;19995;-68
2022/01/11 10:44:52;;;;;;;;;;;9.70;53.20;;;;;;5058070;28;19908;-68
2022/01/11 10:47:29;;;;;;;;;;;9.80;53.20;;;;;;5057756;28;20248;-68
2022/01/11 10:49:56;;;;;;;;;;;9.80;53.00;;;;;;5057104;28;19911;-68
2022/01/11 10:52:24;;;;;;;;;;;9.80;52.80;;;;;;5076119;28;19904;-69
2022/01/11 10:54:50;;;;;;;;;;;9.80;52.20;;;;;;5057911;28;20205;-68
2022/01/11 10:57:15;;;;;;;;;;;9.80;51.70;;;;;;5057448;28;20346;-68
2022/01/11 10:59:41;;;;;;;;;;;9.80;51.40;;;;;;5056767;28;19913;-69
2022/01/11 11:02:13;;;;;;;;;;;9.70;51.40;;;;;;5076391;28;19995;-69
2022/01/11 11:04:39;;;;;;;;;;;9.70;51.30;;;;;;5057791;28;19916;-69
2022/01/11 11:07:18;;;;;;;;;;;9.70;51.00;;;;;;5058039;28;20352;-66
2022/01/11 11:09:44;;;;;;;;;;;9.60;50.50;;;;;;5074389;28;19927;-67
2022/01/11 11:12:17;;;;;;;;;;;9.60;50.70;;;;;;5058056;28;20334;-66
2022/01/11 11:14:50;;;;;;;;;;;9.60;50.60;;;;;;5075444;28;19932;-67
2022/01/11 11:17:32;;;;;;;;;;;9.60;50.80;;;;;;5075280;28;19921;-66
2022/01/11 11:20:08;;;;;;;;;;;9.60;50.70;;;;;;5074114;28;19915;-66
2022/01/11 11:22:34;;;;;;;;;;;9.60;50.70;;;;;;5075356;28;20369;-73
2022/01/11 11:25:00;;;;;;;;;;;9.60;50.70;;;;;;5075309;28;19947;-70
2022/01/11 11:27:28;;;;;;;;;;;9.60;50.40;;;;;;5057579;28;19904;-72
2022/01/11 11:29:54;;;;;;;;;;;9.60;50.40;;;;;;5074619;28;19904;-71
2022/01/11 11:32:20;;;;;;;;;;;9.60;50.30;;;;;;5062085;28;19930;-70
2022/01/11 11:34:49;;;;;;;;;;;9.70;50.50;;;;;;5062813;28;20340;-71
2022/01/11 11:37:21;;;;;;;;;;;9.70;50.40;;;;;;5075459;28;19927;-73
2022/01/11 11:39:51;;;;;;;;;;;9.80;50.40;;;;;;5073752;28;19912;-64
2022/01/11 11:42:18;;;;;;;;;;;9.80;50.40;;;;;;5075051;28;19912;-66
2022/01/11 11:44:46;;;;;;;;;;;9.90;50.50;;;;;;5074483;28;20356;-67
2022/01/11 11:47:11;;;;;;;;;;;10.00;50.30;;;;;;5075443;28;19908;-67
2022/01/11 11:49:45;;;;;;;;;;;10.00;50.20;;;;;;5073713;28;19908;-65
2022/01/11 11:52:22;;;;;;;;;;;10.10;49.90;;;;;;5075033;28;19909;-70
2022/01/11 11:54:56;;;;;;;;;;;10.10;49.80;;;;;;5056801;28;19908;-70
2022/01/11 11:57:22;;;;;;;;;;;10.10;49.20;;;;;;5057091;28;19908;-70
2022/01/11 11:59:53;;;;;;;;;;;10.10;48.90;;;;;;5055670;28;19916;-70
2022/01/11 12:02:35;;;;;;;;;;;10.10;48.80;;;;;;5074721;28;19909;-68
2022/01/11 12:05:04;;;;;;;;;;;10.00;48.60;;;;;;5056420;28;19916;-70
2022/01/11 12:07:33;;;;;;;;;;;10.00;48.50;;;;;;5056679;28;20359;-67
2022/01/11 12:09:59;;;;;;;;;;;10.00;48.50;;;;;;5054170;28;19908;-67
2022/01/11 12:12:38;;;;;;;;;;;10.00;48.50;;;;;;5074355;28;19963;-68
2022/01/11 12:15:22;;;;;;;;;;;10.00;48.60;;;;;;5073930;28;19923;-69
2022/01/11 12:17:57;;;;;;;;;;;10.00;48.50;;;;;;5088794;28;19927;-71
2022/01/11 12:20:41;;;;;;;;;;;10.00;48.30;;;;;;5074044;28;20357;-67
2022/01/11 12:23:07;;;;;;;;;;;10.00;48.30;;;;;;5074372;28;19916;-67
2022/01/11 12:25:42;;;;;;;;;;;10.00;48.10;;;;;;5074112;28;19919;-67
2022/01/11 12:28:14;;;;;;;;;;;10.00;48.20;;;;;;5055098;28;20348;-70
2022/01/11 12:30:40;;;;;;;;;;;10.00;48.00;;;;;;5074159;28;20263;-67
2022/01/11 12:33:10;;;;;;;;;;;10.00;47.90;;;;;;5085266;28;19999;-69
2022/01/11 12:35:55;;;;;;;;;;;9.90;48.30;;;;;;5056803;28;20305;-67
2022/01/11 12:38:21;;;;;;;;;;;9.90;47.50;;;;;;5072529;28;19904;-69
2022/01/11 12:40:47;;;;;;;;;;;9.80;47.30;;;;;;5074271;28;20368;-70
2022/01/11 12:43:35;;;;;;;;;;;9.80;47.40;;;;;;5055971;28;20013;-68
2022/01/11 12:46:01;;;;;;;;;;;9.70;47.20;;;;;;5056068;28;19915;-69
2022/01/11 12:48:42;;;;;;;;;;;9.70;47.30;;;;;;5054689;28;19909;-69
2022/01/11 12:51:08;;;;;;;;;;;9.60;47.30;;;;;;5073997;28;19905;-70
2022/01/11 12:53:34;;;;;;;;;;;9.60;47.50;;;;;;5055755;28;19905;-69
2022/01/11 12:55:59;;;;;;;;;;;9.50;47.50;;;;;;5073835;28;19911;-70
2022/01/11 12:58:26;;;;;;;;;;;9.50;47.40;;;;;;5072410;28;20395;-70
2022/01/11 13:00:52;;;;;;;;;;;9.50;47.50;;;;;;5055923;28;20023;-69
2022/01/11 13:03:17;;;;;;;;;;;9.50;47.60;;;;;;5073301;28;19962;-67
2022/01/11 13:05:43;;;;;;;;;;;9.50;47.40;;;;;;5073425;28;20315;-67
2022/01/11 13:08:09;;;;;;;;;;;9.50;47.50;;;;;;5054378;28;20324;-67
2022/01/11 13:10:35;;;;;;;;;;;9.50;47.60;;;;;;5055715;28;19911;-66
2022/01/11 13:13:03;;;;;;;;;;;9.50;47.50;;;;;;5073601;28;19973;-66
2022/01/11 13:15:39;;;;;;;;;;;9.50;47.20;;;;;;5073197;28;20012;-69
2022/01/11 13:18:09;;;;;;;;;;;9.40;47.10;;;;;;5071936;28;19936;-67
2022/01/11 13:20:36;;;;;;;;;;;9.40;46.90;;;;;;5073051;28;19955;-67
2022/01/11 13:23:26;;;;;;;;;;;9.30;46.60;;;;;;5073115;28;19909;-67
2022/01/11 13:25:53;;;;;;;;;;;9.20;46.30;;;;;;5055024;28;19944;-65
2022/01/11 13:28:32;;;;;;;;;;;9.20;46.30;;;;;;5072314;28;19904;-67
2022/01/11 13:30:58;;;;;;;;;;;9.10;46.50;;;;;;5073361;28;19912;-67
2022/01/11 13:33:25;;;;;;;;;;;9.00;46.60;;;;;;5087106;28;20259;-66
2022/01/11 13:35:51;;;;;;;;;;;9.00;46.60;;;;;;5073930;28;19911;-67
2022/01/11 13:38:17;;;;;;;;;;;9.00;46.50;;;;;;5072090;28;19908;-70
2022/01/11 13:40:43;;;;;;;;;;;8.90;46.60;;;;;;5055333;28;20252;-77
2022/01/11 13:43:12;;;;;;;;;;;8.90;46.90;;;;;;5055359;28;20294;-71
2022/01/11 13:45:44;;;;;;;;;;;8.90;46.90;;;;;;5055035;28;19908;-68
2022/01/11 13:48:21;;;;;;;;;;;8.90;46.90;;;;;;5071830;28;19938;-66
2022/01/11 13:50:48;;;;;;;;;;;8.90;46.90;;;;;;5055313;28;19908;-70
2022/01/11 13:53:21;;;;;;;;;;;8.90;46.90;;;;;;5054947;28;19904;-73
2022/01/11 13:55:48;;;;;;;;;;;8.90;46.50;;;;;;5072969;28;20275;-77
2022/01/11 13:58:17;;;;;;;;;;;8.80;46.50;;;;;;5072009;28;19905;-76
2022/01/11 14:00:43;;;;;;;;;;;8.80;46.40;;;;;;5055245;28;19955;-72
2022/01/11 14:03:17;;;;;;;;;;;8.70;46.30;;;;;;5073150;28;19912;-69
2022/01/11 14:05:43;;;;;;;;;;;8.60;46.40;;;;;;5072726;28;19916;-73
2022/01/11 14:08:11;;;;;;;;;;;8.60;46.40;;;;;;5071758;28;19905;-71
2022/01/11 14:10:37;;;;;;;;;;;8.50;46.30;;;;;;5073137;28;19952;-71
2022/01/11 14:13:07;;;;;;;;;;;8.40;46.40;;;;;;5054924;28;19915;-71
2022/01/11 14:15:33;;;;;;;;;;;8.30;46.30;;;;;;5054782;28;20328;-70
2022/01/11 14:17:59;;;;;;;;;;;8.30;46.30;;;;;;5053403;28;19978;-70
2022/01/11 14:20:26;;;;;;;;;;;8.20;46.30;;;;;;5054962;28;19916;-70
2022/01/11 14:22:53;;;;;;;;;;;8.10;46.30;;;;;;5054888;28;20303;-70
2022/01/11 14:25:20;;;;;;;;;;;8.00;46.50;;;;;;5072612;28;19992;-71
2022/01/11 14:27:55;;;;;;;;;;;8.00;46.70;;;;;;5071780;28;19912;-71
2022/01/11 14:30:21;;;;;;;;;;;7.90;46.60;;;;;;5072857;28;19905;-76
2022/01/11 14:32:48;;;;;;;;;;;7.80;46.70;;;;;;5064187;28;19908;-77
2022/01/11 14:35:14;;;;;;;;;;;7.70;46.70;;;;;;5084085;28;20237;-79
2022/01/11 14:37:40;;;;;;;;;;;7.70;46.70;;;;;;5057976;28;20255;-77
2022/01/11 14:40:27;;;;;;;;;;;7.60;46.70;;;;;;5057825;28;19911;-74
2022/01/11 14:42:53;;;;;;;;;;;7.50;47.30;;;;;;5058131;28;20348;-78
2022/01/11 14:45:21;;;;;;;;;;;7.40;46.90;;;;;;5058186;28;19962;-78